タンクレド・ネヴェス国際空港の過去48時間の天気

タンクレド・ネヴェス国際空港 (Belo Horizonte)

現在時刻: 5/25 21:55 -03 (5/26 00:55 UTC) 以下の時間は現地時間です。

過去48時間のMETAR気象情報
時間 風向 風速(m/s) 視程 気温(℃) 湿度(%) 気圧(hPa) 天気現象
25 21:00 6 10km以上 19 64 1026
25 20:00 5 10km以上 19 64 1026
25 19:00 5 10km以上 20 64 1025
25 18:00 4 10km以上 20 64 1025
25 17:00 5 10km以上 21 60 1025
25 16:00 北東 3 10km以上 21 60 1025
25 15:00 不定 2 10km以上 21 56 1025
25 14:00 北東 4 10km以上 21 60 1025
25 13:00 5 10km以上 21 56 1026
25 12:00 4 10km以上 21 60 1027
25 11:00 5 10km以上 19 68 1027
25 10:00 4 10km以上 19 68 1028
25 09:00 4 10km以上 18 73 1028
25 08:00 5 10km以上 16 77 1027
25 07:00 4 10km以上 15 77 1026
25 06:00 3 10km以上 14 82 1026
25 05:00 東北東 3 10km以上 14 82 1026
25 04:00 5 10km以上 15 72 1025
25 03:00 東南東 4 10km以上 14 77 1025
25 02:00 東南東 5 10km以上 15 72 1026
25 01:00 東南東 5 10km以上 16 63 1026
25 00:00 4 10km以上 17 59 1026
24 23:00 4 10km以上 17 59 1026
24 22:00 4 10km以上 17 59 1025
24 21:00 5 10km以上 18 60 1025
24 20:00 5 10km以上 19 56 1025
24 19:00 5 10km以上 20 53 1024
24 18:00 5 10km以上 21 49 1024
24 17:00 4 10km以上 22 46 1023
24 16:00 東南東 3 10km以上 23 41 1023
24 15:00 4 10km以上 23 41 1023
24 14:00 4 10km以上 23 44 1023
24 13:00 4 10km以上 23 47 1024
24 12:00 東南東 3 10km以上 23 50 1025
24 11:00 3 10km以上 22 50 1026
24 10:00 4 10km以上 20 60 1026
24 09:00 2 10km以上 18 68 1026
24 08:00 4 10km以上 16 77 1025
24 07:00 東南東 4 10km以上 15 82 1024
24 06:00 東南東 3 10km以上 13 88 1024
24 05:00 4 10km以上 14 82 1023
24 04:00 南東 2 10km以上 13 82 1023
24 03:00 東南東 3 10km以上 14 82 1023
24 02:00 東南東 1 10km以上 14 82 1023
24 01:00 南東 1 10km以上 15 77 1024
24 00:00 東南東 2 10km以上 15 77 1024
23 23:00 南東 3 10km以上 16 72 1024
23 22:00 東南東 4 10km以上 16 72 1024
SBCF 260000Z 09011KT 9999 BKN045 19/12 Q1026
SBCF 252300Z 08009KT 9999 BKN045 SCT070 19/12 Q1026
SBCF 252200Z 10009KT 9999 BKN045 20/13 Q1025
SBCF 252100Z 09008KT 9999 BKN045 20/13 Q1025
SBCF 252000Z 09009KT 9999 BKN045 21/13 Q1025
SBCF 251900Z 05005KT 010V080 9999 BKN040 21/13 Q1025
SBCF 251800Z VRB04KT 9999 BKN040 21/12 Q1025
SBCF 251700Z 05007KT 020V090 9999 BKN035 21/13 Q1025
SBCF 251600Z 09009KT 9999 BKN035 21/12 Q1026
SBCF 251500Z 08007KT 9999 BKN035 21/13 Q1027
SBCF 251400Z 09009KT 9999 BKN025 19/13 Q1027
SBCF 251300Z 10008KT 9999 BKN025 19/13 Q1028
SBCF 251200Z 10008KT 9999 FEW025 18/13 Q1028
SBCF 251100Z 10009KT 9999 FEW025 16/12 Q1027
SBCF 251000Z 10008KT CAVOK 15/11 Q1026
SBCF 250900Z 09005KT CAVOK 14/11 Q1026
SBCF 250800Z 06005KT CAVOK 14/11 Q1026
SBCF 250700Z 10009KT CAVOK 15/10 Q1025
SBCF 250600Z 11007KT CAVOK 14/10 Q1025
SBCF 250500Z 11010KT CAVOK 15/10 Q1026
SBCF 250400Z 11009KT CAVOK 16/09 Q1026
SBCF 250300Z 09007KT CAVOK 17/09 Q1026
SBCF 250200Z 09008KT CAVOK 17/09 Q1026
SBCF 250100Z 10008KT CAVOK 17/09 Q1025
SBCF 250000Z 09009KT CAVOK 18/10 Q1025
SBCF 242300Z 09009KT CAVOK 19/10 Q1025
SBCF 242200Z 09010KT CAVOK 20/10 Q1024
SBCF 242100Z 10009KT CAVOK 21/10 Q1024
SBCF 242000Z 09008KT CAVOK 22/10 Q1023
SBCF 241900Z 11006KT 9999 SCT045 23/09 Q1023
SBCF 241800Z 09008KT 9999 SCT045 23/09 Q1023
SBCF 241700Z 10007KT 9999 BKN045 23/10 Q1023
SBCF 241600Z 08007KT 9999 SCT040 23/11 Q1024
SBCF 241500Z 12005KT 9999 SCT040 23/12 Q1025
SBCF 241400Z 10006KT 9999 SCT030 22/11 Q1026
SBCF 241300Z 10007KT 9999 FEW025 20/12 Q1026
SBCF 241200Z 10004KT 9999 FEW025 18/12 Q1026
SBCF 241100Z 10007KT CAVOK 16/12 Q1025
SBCF 241000Z 11007KT CAVOK 15/12 Q1024
SBCF 240900Z 12005KT 9999 FEW030 13/11 Q1024
SBCF 240800Z 10007KT CAVOK 14/11 Q1023
SBCF 240700Z 13004KT CAVOK 13/10 Q1023
SBCF 240600Z 11005KT CAVOK 14/11 Q1023
SBCF 240500Z 12002KT CAVOK 14/11 Q1023
SBCF 240400Z 13002KT CAVOK 15/11 Q1024
SBCF 240300Z 12003KT CAVOK 15/11 Q1024
SBCF 240200Z 13006KT CAVOK 16/11 Q1024
SBCF 240100Z 12007KT CAVOK 16/11 Q1024